Time;durP1;ratioP1;P1;durP2;ratioP2;P2;SDS_P1;SDS_P2;PMS_P1;PMS_P2;Temp;Humidity;BMP_temperature;BMP_pressure;BME280_temperature;BME280_humidity;BME280_pressure;Samples;Min_cycle;Max_cycle;Signal;HPM_P1;HPM_P2
2021/12/14 00:00:28;;;;;;;12.30;5.50;;;7.50;97.30;;;;;;5017373;28;20634;-80
2021/12/14 00:02:54;;;;;;;16.67;6.40;;;7.50;97.30;;;;;;5029641;28;20564;-79
2021/12/14 00:05:22;;;;;;;13.90;5.70;;;7.50;97.30;;;;;;5012927;28;20419;-79
2021/12/14 00:07:49;;;;;;;15.43;6.33;;;7.50;97.30;;;;;;5012320;28;20517;-80
2021/12/14 00:10:43;;;;;;;15.60;6.13;;;7.50;97.30;;;;;;5012506;28;20458;-79
2021/12/14 00:13:29;;;;;;;13.00;5.33;;;7.50;97.30;;;;;;5030788;28;20423;-80
2021/12/14 00:15:57;;;;;;;13.97;6.47;;;7.50;97.30;;;;;;5013403;28;20933;-80
2021/12/14 00:18:23;;;;;;;11.50;5.60;;;7.40;97.30;;;;;;5012635;28;20426;-80
2021/12/14 00:21:04;;;;;;;14.00;5.43;;;7.50;97.30;;;;;;5012751;28;20462;-79
2021/12/14 00:26:19;;;;;;;13.47;6.10;;;7.50;97.30;;;;;;5030382;28;20438;-81
2021/12/14 00:28:45;;;;;;;12.73;6.60;;;7.40;97.30;;;;;;5012202;28;20432;-81
2021/12/14 00:31:16;;;;;;;13.30;5.87;;;7.40;97.30;;;;;;5012926;28;20424;-81
2021/12/14 00:33:44;;;;;;;8.97;5.00;;;7.40;97.30;;;;;;5031090;28;20427;-80
2021/12/14 00:36:12;;;;;;;11.80;5.40;;;7.40;97.30;;;;;;5012810;28;20423;-81
2021/12/14 00:38:39;;;;;;;12.80;6.23;;;7.40;97.30;;;;;;5013413;28;20426;-81
2021/12/14 00:41:10;;;;;;;14.07;6.30;;;7.40;97.30;;;;;;5031102;28;20454;-80
2021/12/14 00:43:36;;;;;;;11.73;5.00;;;7.40;97.30;;;;;;5012958;28;20427;-81
2021/12/14 00:46:03;;;;;;;11.70;6.20;;;7.40;97.30;;;;;;5014768;28;20940;-80
2021/12/14 00:48:29;;;;;;;10.50;5.40;;;7.40;97.30;;;;;;5016506;28;20773;-79
2021/12/14 00:50:57;;;;;;;15.97;5.07;;;7.40;97.30;;;;;;5016616;28;20425;-80
2021/12/14 00:53:25;;;;;;;12.97;5.60;;;7.40;97.30;;;;;;5016788;28;20228;-80
2021/12/14 00:55:53;;;;;;;12.13;5.40;;;7.40;97.30;;;;;;5017118;28;20423;-81
2021/12/14 00:58:20;;;;;;;10.50;5.23;;;7.40;97.30;;;;;;5016015;28;20435;-82
2021/12/14 01:01:09;;;;;;;9.53;4.73;;;7.40;97.30;;;;;;5017404;28;20465;-80
2021/12/14 01:03:41;;;;;;;13.07;5.30;;;7.40;97.30;;;;;;5018752;28;21022;-80
2021/12/14 01:06:10;;;;;;;9.90;4.90;;;7.40;97.30;;;;;;5018806;28;20655;-80
2021/12/14 01:08:39;;;;;;;6.90;3.97;;;7.40;97.30;;;;;;5017680;28;20425;-80
2021/12/14 01:11:33;;;;;;;9.70;4.40;;;7.40;97.30;;;;;;5017298;28;20624;-80
2021/12/14 01:14:06;;;;;;;8.97;4.67;;;7.40;97.30;;;;;;5030240;28;20493;-81
2021/12/14 01:16:54;;;;;;;10.00;4.40;;;7.40;97.30;;;;;;5013768;28;20533;-80
2021/12/14 01:19:28;;;;;;;11.97;4.13;;;7.40;97.30;;;;;;5012948;28;20805;-80
2021/12/14 01:22:18;;;;;;;9.37;4.57;;;7.40;97.30;;;;;;5012967;28;20466;-80
2021/12/14 01:27:31;;;;;;;10.27;4.60;;;7.40;97.30;;;;;;5031151;28;20955;-81
2021/12/14 01:30:02;;;;;;;9.87;5.03;;;7.40;97.30;;;;;;5031950;28;20416;-81
2021/12/14 01:32:30;;;;;;;11.43;4.63;;;7.40;97.30;;;;;;5015359;28;20415;-80
2021/12/14 01:34:56;;;;;;;10.13;4.73;;;7.30;97.30;;;;;;5016186;28;20470;-80
2021/12/14 01:37:27;;;;;;;10.83;5.00;;;7.40;97.30;;;;;;5015600;28;20442;-80
2021/12/14 01:40:04;;;;;;;9.30;4.57;;;7.40;97.30;;;;;;5033471;28;20931;-80
2021/12/14 01:42:44;;;;;;;7.60;4.47;;;7.30;97.30;;;;;;5033766;28;20471;-80
2021/12/14 01:45:26;;;;;;;7.43;3.70;;;7.30;97.30;;;;;;5015946;28;20795;-80
2021/12/14 01:47:58;;;;;;;7.50;3.93;;;7.30;97.30;;;;;;5015638;28;20489;-80
2021/12/14 01:50:36;;;;;;;7.07;3.83;;;7.30;97.30;;;;;;5015904;28;20468;-80
2021/12/14 01:53:04;;;;;;;9.03;4.30;;;7.30;97.30;;;;;;5015473;28;20878;-80
2021/12/14 01:55:35;;;;;;;7.43;4.17;;;7.30;97.30;;;;;;5015652;28;20774;-80
2021/12/14 01:58:04;;;;;;;9.03;4.00;;;7.20;97.30;;;;;;5014908;28;21035;-80
2021/12/14 02:00:40;;;;;;;7.07;4.07;;;7.30;97.30;;;;;;5030209;28;20431;-80
2021/12/14 02:03:09;;;;;;;11.40;4.17;;;7.30;97.30;;;;;;5032210;28;20449;-80
2021/12/14 02:05:41;;;;;;;9.07;4.43;;;7.30;97.30;;;;;;5015290;28;20420;-80
2021/12/14 02:08:35;;;;;;;12.40;4.60;;;7.30;97.30;;;;;;5032215;28;20489;-80
2021/12/14 02:11:05;;;;;;;10.67;4.70;;;7.30;97.30;;;;;;5029278;28;20446;-80
2021/12/14 02:13:38;;;;;;;11.33;5.37;;;7.20;97.30;;;;;;5014332;28;20453;-80
2021/12/14 02:16:06;;;;;;;9.40;4.30;;;7.30;97.30;;;;;;5015068;28;20427;-81
2021/12/14 02:18:32;;;;;;;11.33;4.67;;;7.20;97.30;;;;;;5014895;28;20916;-80
2021/12/14 02:21:01;;;;;;;9.57;4.37;;;7.30;97.30;;;;;;5014803;28;20455;-81
2021/12/14 02:23:29;;;;;;;10.27;5.00;;;7.30;97.30;;;;;;5014266;28;20450;-82
2021/12/14 02:25:58;;;;;;;11.47;4.63;;;7.20;97.30;;;;;;5014095;28;20515;-80
2021/12/14 02:28:24;;;;;;;9.67;4.73;;;7.30;97.30;;;;;;5014626;28;20415;-80
2021/12/14 02:30:54;;;;;;;13.27;5.23;;;7.20;97.30;;;;;;5031041;28;20990;-82
2021/12/14 02:33:24;;;;;;;14.80;5.80;;;7.20;97.30;;;;;;5030898;28;20921;-80
2021/12/14 02:35:52;;;;;;;11.30;5.40;;;7.20;97.30;;;;;;5029974;28;20897;-80
2021/12/14 02:38:19;;;;;;;9.47;5.20;;;7.20;97.30;;;;;;5013331;28;20451;-80
2021/12/14 02:40:54;;;;;;;13.33;6.30;;;7.20;97.30;;;;;;5030405;28;20423;-80
2021/12/14 02:43:42;;;;;;;14.37;6.20;;;7.20;97.30;;;;;;5031485;28;20901;-80
2021/12/14 02:46:26;;;;;;;12.00;4.87;;;7.20;97.30;;;;;;5013264;28;20509;-82
2021/12/14 02:49:02;;;;;;;11.47;5.07;;;7.20;97.30;;;;;;5029964;28;21034;-80
2021/12/14 02:51:32;;;;;;;16.23;6.17;;;7.20;97.30;;;;;;5013475;28;20422;-81
2021/12/14 02:54:04;;;;;;;11.73;6.50;;;7.20;97.30;;;;;;5029867;28;20589;-81
2021/12/14 02:56:31;;;;;;;18.23;6.10;;;7.20;97.30;;;;;;5029964;28;20447;-80
2021/12/14 02:59:07;;;;;;;10.40;4.83;;;7.20;97.30;;;;;;5022051;28;20935;-82
2021/12/14 03:01:34;;;;;;;14.57;6.70;;;7.20;97.30;;;;;;5033196;28;21043;-80
2021/12/14 03:04:05;;;;;;;10.97;5.67;;;7.10;97.30;;;;;;5033289;28;20414;-81
2021/12/14 03:06:45;;;;;;;11.17;5.30;;;7.20;97.30;;;;;;5051027;28;20654;-79
2021/12/14 03:12:18;;;;;;;13.23;5.93;;;7.20;97.30;;;;;;4973219;28;20419;-81
2021/12/14 03:14:50;;;;;;;16.20;6.87;;;7.20;97.30;;;;;;5029653;28;20945;-80
2021/12/14 03:17:17;;;;;;;15.20;6.23;;;7.20;97.30;;;;;;5030764;28;20449;-81
2021/12/14 03:19:43;;;;;;;11.50;6.43;;;7.20;97.30;;;;;;5029777;28;20422;-80
2021/12/14 03:22:30;;;;;;;14.63;6.10;;;7.20;97.30;;;;;;5030839;28;20450;-81
2021/12/14 03:24:55;;;;;;;12.03;5.90;;;7.20;97.30;;;;;;5029652;28;20415;-80
2021/12/14 03:27:21;;;;;;;15.07;6.60;;;7.10;97.30;;;;;;5029081;28;20424;-79
2021/12/14 03:29:47;;;;;;;15.07;6.90;;;7.20;97.30;;;;;;5030097;28;20689;-81
2021/12/14 03:32:13;;;;;;;14.00;7.00;;;7.10;97.30;;;;;;5029227;28;20542;-79
2021/12/14 03:34:40;;;;;;;12.67;6.13;;;7.10;97.30;;;;;;5029061;28;20589;-81
2021/12/14 03:37:14;;;;;;;13.37;6.43;;;7.10;97.30;;;;;;5028241;28;20470;-80
2021/12/14 03:39:43;;;;;;;13.10;5.87;;;7.10;97.30;;;;;;5029085;28;20446;-81
2021/12/14 03:42:12;;;;;;;11.87;6.83;;;7.10;97.30;;;;;;5029421;28;20455;-80
2021/12/14 03:44:43;;;;;;;12.10;6.27;;;7.10;97.30;;;;;;5029501;28;20411;-80
2021/12/14 03:47:16;;;;;;;15.73;6.60;;;7.10;97.30;;;;;;5028920;28;20435;-81
2021/12/14 03:50:09;;;;;;;17.10;7.40;;;7.10;97.30;;;;;;5029383;28;20508;-81
2021/12/14 03:52:38;;;;;;;13.33;5.50;;;7.10;97.30;;;;;;5031356;28;20430;-80
2021/12/14 03:55:23;;;;;;;13.97;5.83;;;7.10;97.30;;;;;;5032295;28;20422;-80
2021/12/14 03:57:49;;;;;;;12.10;6.20;;;7.00;97.30;;;;;;5032694;28;20537;-81
2021/12/14 04:00:30;;;;;;;14.70;6.63;;;7.10;97.30;;;;;;5013191;28;20548;-80
2021/12/14 04:02:59;;;;;;;13.80;6.50;;;7.00;97.30;;;;;;5012336;28;20196;-80
2021/12/14 04:05:25;;;;;;;13.70;5.70;;;7.00;97.30;;;;;;5029746;28;20703;-80
2021/12/14 04:07:50;;;;;;;11.00;6.33;;;7.00;97.30;;;;;;5012186;28;20431;-80
2021/12/14 04:10:31;;;;;;;10.77;5.60;;;7.00;97.30;;;;;;5012922;28;20180;-81
2021/12/14 04:12:57;;;;;;;10.43;5.40;;;7.00;97.30;;;;;;5012789;28;20177;-81
2021/12/14 04:15:23;;;;;;;12.20;5.80;;;6.90;97.30;;;;;;5012978;28;20802;-80
2021/12/14 04:17:49;;;;;;;12.87;5.60;;;6.90;97.30;;;;;;5012907;28;20450;-81
2021/12/14 04:20:28;;;;;;;13.03;5.93;;;6.90;97.30;;;;;;5013454;28;20415;-80
2021/12/14 04:22:54;;;;;;;12.57;5.87;;;6.90;97.30;;;;;;5016599;28;20204;-81
2021/12/14 04:25:24;;;;;;;10.33;5.10;;;6.90;97.30;;;;;;5016066;28;20818;-80
2021/12/14 04:27:51;;;;;;;10.70;5.13;;;6.90;97.30;;;;;;5016612;28;20435;-81
2021/12/14 04:30:19;;;;;;;11.43;5.10;;;6.90;97.30;;;;;;5016585;28;20740;-82
2021/12/14 04:32:50;;;;;;;9.07;5.10;;;6.90;97.30;;;;;;5016401;28;20426;-81
2021/12/14 04:35:17;;;;;;;11.63;5.17;;;6.90;97.30;;;;;;5033733;28;20500;-82
2021/12/14 04:37:48;;;;;;;10.17;5.23;;;6.90;97.30;;;;;;5016088;28;20435;-80
2021/12/14 04:40:36;;;;;;;12.90;5.10;;;6.80;97.30;;;;;;5016784;28;20415;-80
2021/12/14 04:54:04;;;;;;;9.67;4.83;;;6.80;97.30;;;;;;5034256;28;20489;-80
2021/12/14 04:56:40;;;;;;;10.90;5.17;;;6.80;97.30;;;;;;5016637;28;20968;-81
2021/12/14 04:59:07;;;;;;;9.33;4.80;;;6.80;97.30;;;;;;5007350;28;20165;-80
2021/12/14 05:01:37;;;;;;;10.23;5.30;;;6.80;97.30;;;;;;4996797;28;20810;-80
2021/12/14 05:04:07;;;;;;;12.13;5.30;;;6.80;97.30;;;;;;4996492;28;20860;-80
2021/12/14 05:06:46;;;;;;;11.10;5.03;;;6.80;97.30;;;;;;4995439;28;20440;-80
2021/12/14 05:09:21;;;;;;;9.00;4.83;;;6.80;97.30;;;;;;4996439;28;20981;-81
2021/12/14 05:12:18;;;;;;;8.13;4.07;;;6.80;97.30;;;;;;5005424;28;20595;-81
2021/12/14 05:14:46;;;;;;;11.03;5.47;;;6.80;97.30;;;;;;5034306;28;20442;-81
2021/12/14 05:17:16;;;;;;;8.00;4.47;;;6.80;97.30;;;;;;5015911;28;20443;-80
2021/12/14 05:19:44;;;;;;;11.37;4.80;;;6.80;97.30;;;;;;5016179;28;20431;-81
2021/12/14 05:22:14;;;;;;;13.30;5.27;;;6.70;97.30;;;;;;5015957;28;20570;-81
2021/12/14 05:24:43;;;;;;;10.63;4.87;;;6.70;97.30;;;;;;5033351;28;20437;-81
2021/12/14 05:27:14;;;;;;;8.20;3.90;;;6.70;97.30;;;;;;5015471;28;20449;-81
2021/12/14 05:29:41;;;;;;;11.30;5.50;;;6.70;97.30;;;;;;5015952;28;20823;-81
2021/12/14 05:32:08;;;;;;;11.37;5.20;;;6.70;97.30;;;;;;5015569;28;20509;-80
2021/12/14 05:34:36;;;;;;;8.43;4.20;;;6.70;97.30;;;;;;5015012;28;20415;-80
2021/12/14 05:37:03;;;;;;;11.20;4.87;;;6.80;97.30;;;;;;5015208;28;20439;-80
2021/12/14 05:39:54;;;;;;;11.00;5.43;;;6.80;97.30;;;;;;5015887;28;20803;-80
2021/12/14 05:45:09;;;;;;;10.27;5.33;;;6.70;97.30;;;;;;5032030;28;20425;-80
2021/12/14 05:47:46;;;;;;;9.77;5.03;;;6.70;97.30;;;;;;5014322;28;20432;-80
2021/12/14 05:50:27;;;;;;;10.40;4.87;;;6.70;97.30;;;;;;5015053;28;20908;-81
2021/12/14 05:52:55;;;;;;;8.30;4.03;;;6.70;97.30;;;;;;5014389;28;20477;-80
2021/12/14 05:55:30;;;;;;;11.40;4.47;;;6.70;97.30;;;;;;5014893;28;20419;-80
2021/12/14 05:57:58;;;;;;;12.07;5.70;;;6.70;97.30;;;;;;5014429;28;20496;-81
2021/12/14 06:00:31;;;;;;;8.43;4.03;;;6.70;97.30;;;;;;5009676;28;20424;-80
2021/12/14 06:02:58;;;;;;;12.30;4.50;;;6.70;97.30;;;;;;5010062;28;20838;-80
2021/12/14 06:05:29;;;;;;;10.07;4.63;;;6.70;97.30;;;;;;4993748;28;20763;-80
2021/12/14 06:07:56;;;;;;;9.73;5.47;;;6.70;97.30;;;;;;5000827;28;20477;-80
2021/12/14 06:10:24;;;;;;;9.30;5.33;;;6.70;97.30;;;;;;5030324;28;20730;-80
2021/12/14 06:12:50;;;;;;;7.27;3.83;;;6.70;97.30;;;;;;5011861;28;20867;-80
2021/12/14 06:15:25;;;;;;;8.47;4.23;;;6.70;97.30;;;;;;5014488;28;20459;-80
2021/12/14 06:17:50;;;;;;;7.23;3.60;;;6.70;97.30;;;;;;5014521;28;20807;-80
2021/12/14 06:20:26;;;;;;;7.80;4.17;;;6.70;97.30;;;;;;5014629;28;20434;-81
2021/12/14 06:22:53;;;;;;;7.43;4.43;;;6.70;97.30;;;;;;5014729;28;20246;-81
2021/12/14 06:25:25;;;;;;;7.80;3.80;;;6.70;97.30;;;;;;5013851;28;20916;-81
2021/12/14 06:27:53;;;;;;;8.73;4.03;;;6.70;97.30;;;;;;5014686;28;20442;-80
2021/12/14 06:30:29;;;;;;;8.20;4.27;;;6.70;97.30;;;;;;5032239;28;20756;-81
2021/12/14 06:32:58;;;;;;;7.80;4.60;;;6.70;97.30;;;;;;5014293;28;20905;-80
2021/12/14 06:35:45;;;;;;;8.33;4.40;;;6.70;97.30;;;;;;5032199;28;20430;-80
2021/12/14 06:40:56;;;;;;;8.77;4.80;;;6.70;97.30;;;;;;5032447;28;20454;-80
2021/12/14 06:43:33;;;;;;;7.33;4.20;;;6.70;97.30;;;;;;5013943;28;20761;-80
2021/12/14 06:46:05;;;;;;;8.23;3.33;;;6.70;97.30;;;;;;5013767;28;20415;-81
2021/12/14 06:48:38;;;;;;;9.63;4.70;;;6.80;97.30;;;;;;5013887;28;20489;-80
2021/12/14 06:51:32;;;;;;;7.80;3.83;;;6.80;97.30;;;;;;5031562;28;20415;-81
2021/12/14 06:54:08;;;;;;;10.20;5.00;;;6.80;97.30;;;;;;5010076;28;20518;-82
2021/12/14 06:56:35;;;;;;;7.43;3.63;;;6.80;97.30;;;;;;5015124;28;20442;-80
2021/12/14 06:59:05;;;;;;;11.47;5.40;;;6.70;97.30;;;;;;5006459;28;20420;-81
2021/12/14 07:01:39;;;;;;;8.57;3.67;;;6.70;97.30;;;;;;5014989;28;20552;-81
2021/12/14 07:04:06;;;;;;;10.20;4.23;;;6.70;97.30;;;;;;5010372;28;20423;-81
2021/12/14 07:06:31;;;;;;;9.10;3.90;;;6.80;97.30;;;;;;5004583;28;20440;-80
2021/12/14 07:09:20;;;;;;;7.80;3.93;;;6.70;97.30;;;;;;5005098;28;20411;-80
2021/12/14 07:11:54;;;;;;;7.83;3.90;;;6.70;97.30;;;;;;5035077;28;20248;-81
2021/12/14 07:14:26;;;;;;;6.87;3.70;;;6.70;97.30;;;;;;5004663;28;20461;-80
2021/12/14 07:16:52;;;;;;;9.00;3.60;;;6.70;97.30;;;;;;5005031;28;20454;-80
2021/12/14 07:19:52;;;;;;;7.50;4.10;;;6.70;97.30;;;;;;5019589;28;20420;-80
2021/12/14 07:22:30;;;;;;;7.30;4.40;;;6.60;97.30;;;;;;4999321;28;20451;-81
2021/12/14 07:25:08;;;;;;;9.10;3.80;;;6.60;97.30;;;;;;5005098;28;20417;-81
2021/12/14 07:27:38;;;;;;;7.73;4.00;;;6.60;97.30;;;;;;4997544;28;20446;-81
2021/12/14 07:30:21;;;;;;;12.37;4.63;;;6.60;97.30;;;;;;5006221;28;20926;-80
2021/12/14 07:33:01;;;;;;;9.47;4.17;;;6.60;97.30;;;;;;5008204;28;20526;-80
2021/12/14 07:35:37;;;;;;;10.23;4.23;;;6.60;97.30;;;;;;5017261;28;20478;-82
2021/12/14 07:38:22;;;;;;;8.90;4.23;;;6.70;97.30;;;;;;5006522;28;21003;-80
2021/12/14 07:40:52;;;;;;;8.97;5.00;;;6.70;97.30;;;;;;5009413;28;20416;-81
2021/12/14 07:43:23;;;;;;;9.87;4.07;;;6.70;97.30;;;;;;5009693;28;20426;-80
2021/12/14 07:45:51;;;;;;;8.23;5.00;;;6.70;97.30;;;;;;5013206;28;20446;-81
2021/12/14 07:48:19;;;;;;;13.07;5.60;;;6.70;97.30;;;;;;4994937;28;20845;-80
2021/12/14 07:50:51;;;;;;;9.83;4.60;;;6.70;97.30;;;;;;4993796;28;20448;-80
2021/12/14 07:53:54;;;;;;;10.10;5.70;;;6.80;97.30;;;;;;4993534;28;20464;-82
2021/12/14 07:56:25;;;;;;;28.83;11.90;;;6.80;97.30;;;;;;4994211;28;21027;-82
2021/12/14 07:58:51;;;;;;;17.80;8.27;;;6.80;97.30;;;;;;5002747;28;20411;-80
2021/12/14 08:01:17;;;;;;;14.73;6.73;;;6.80;97.30;;;;;;5013150;28;20493;-80
2021/12/14 08:03:42;;;;;;;11.37;5.97;;;6.80;97.30;;;;;;5013147;28;20269;-80
2021/12/14 08:06:11;;;;;;;10.80;5.13;;;6.80;97.30;;;;;;5012941;28;20582;-81
2021/12/14 08:11:46;;;;;;;8.53;4.50;;;6.80;97.30;;;;;;5030692;28;20924;-80
2021/12/14 08:14:23;;;;;;;13.43;5.93;;;6.80;97.30;;;;;;5000458;28;20914;-80
2021/12/14 08:16:54;;;;;;;10.53;5.50;;;6.80;97.30;;;;;;4994270;28;20475;-81
2021/12/14 08:19:38;;;;;;;10.03;5.20;;;6.80;97.30;;;;;;4999155;28;20424;-81
2021/12/14 08:22:29;;;;;;;7.90;4.60;;;6.80;97.30;;;;;;5004964;28;20450;-82
2021/12/14 08:24:55;;;;;;;10.77;4.90;;;6.80;97.30;;;;;;4998246;28;20782;-80
2021/12/14 08:27:28;;;;;;;11.03;5.37;;;6.90;97.30;;;;;;5006276;28;20490;-80
2021/12/14 08:29:57;;;;;;;11.40;5.10;;;6.90;97.30;;;;;;5024318;28;20421;-81
2021/12/14 08:32:30;;;;;;;9.50;5.23;;;6.90;97.30;;;;;;4998674;28;20416;-80
2021/12/14 08:34:56;;;;;;;11.30;5.53;;;6.90;97.30;;;;;;5011836;28;20423;-80
2021/12/14 08:37:36;;;;;;;10.60;5.63;;;6.90;97.30;;;;;;4999988;28;20946;-79
2021/12/14 08:40:12;;;;;;;10.60;5.90;;;6.90;97.30;;;;;;5000940;28;20967;-80
2021/12/14 08:43:02;;;;;;;11.40;5.50;;;6.90;97.30;;;;;;5026766;28;20467;-80
2021/12/14 08:45:33;;;;;;;14.93;6.30;;;6.90;97.30;;;;;;4993361;28;20470;-81
2021/12/14 08:48:02;;;;;;;10.10;5.77;;;6.90;97.30;;;;;;4996489;28;20432;-80
2021/12/14 08:50:30;;;;;;;16.17;7.13;;;6.90;97.30;;;;;;5007663;28;20975;-81
2021/12/14 08:52:56;;;;;;;10.90;5.63;;;6.90;97.30;;;;;;5012719;28;20848;-81
2021/12/14 08:55:25;;;;;;;13.63;5.40;;;6.90;97.30;;;;;;5012761;28;20408;-81
2021/12/14 08:57:51;;;;;;;11.53;6.30;;;6.90;97.30;;;;;;5013479;28;20685;-81
2021/12/14 09:00:36;;;;;;;17.73;7.17;;;6.90;97.30;;;;;;5006632;28;20425;-81
2021/12/14 09:03:05;;;;;;;11.63;6.47;;;6.90;97.30;;;;;;5012905;28;20557;-80
2021/12/14 09:05:46;;;;;;;12.33;5.60;;;6.90;97.30;;;;;;5010089;28;20415;-80
2021/12/14 09:08:14;;;;;;;13.47;6.50;;;6.90;97.30;;;;;;5007721;28;21056;-80
2021/12/14 09:10:42;;;;;;;11.40;5.43;;;7.00;97.30;;;;;;5000807;28;20427;-80
2021/12/14 09:13:11;;;;;;;15.33;6.70;;;7.00;97.30;;;;;;5005046;28;20514;-81
2021/12/14 09:15:49;;;;;;;9.93;5.40;;;7.00;97.30;;;;;;5028527;28;20462;-82
2021/12/14 09:18:17;;;;;;;9.93;5.30;;;7.00;97.30;;;;;;5008444;28;20864;-80
2021/12/14 09:20:50;;;;;;;12.57;7.27;;;7.00;97.30;;;;;;4999736;28;20519;-80
2021/12/14 09:23:22;;;;;;;10.20;5.20;;;7.00;97.30;;;;;;4997620;28;20434;-81
2021/12/14 09:25:49;;;;;;;13.10;5.17;;;7.00;97.30;;;;;;4997090;28;20417;-80
2021/12/14 09:28:15;;;;;;;12.63;6.03;;;7.00;97.30;;;;;;4999262;28;20454;-81
2021/12/14 09:30:47;;;;;;;12.03;5.60;;;7.00;97.30;;;;;;4996065;28;20444;-80
2021/12/14 09:33:14;;;;;;;15.77;6.20;;;7.00;97.30;;;;;;5001738;28;20407;-80
2021/12/14 09:35:40;;;;;;;11.67;5.93;;;7.00;97.30;;;;;;5010754;28;20937;-80
2021/12/14 09:38:09;;;;;;;15.13;6.40;;;7.00;97.30;;;;;;5015845;28;20443;-81
2021/12/14 09:40:40;;;;;;;12.67;6.10;;;7.10;97.30;;;;;;5015832;28;20788;-80
2021/12/14 09:43:06;;;;;;;13.63;6.47;;;7.10;97.30;;;;;;5015806;28;20463;-80
2021/12/14 09:45:42;;;;;;;14.97;6.00;;;7.10;97.30;;;;;;5014863;28;20419;-81
2021/12/14 09:48:10;;;;;;;16.93;5.30;;;7.10;97.30;;;;;;5007457;28;20594;-81
2021/12/14 09:50:36;;;;;;;15.37;5.63;;;7.10;97.30;;;;;;5000476;28;20412;-81
2021/12/14 09:53:05;;;;;;;19.40;8.20;;;7.00;97.30;;;;;;5008474;28;20490;-80
2021/12/14 09:55:34;;;;;;;16.00;6.00;;;7.00;97.30;;;;;;5026000;28;20427;-80
2021/12/14 09:58:07;;;;;;;16.70;6.83;;;7.10;97.30;;;;;;5003900;28;20960;-81
2021/12/14 10:01:07;;;;;;;12.40;6.03;;;7.10;97.30;;;;;;5021154;28;20417;-80
2021/12/14 10:03:33;;;;;;;18.40;6.37;;;7.10;97.30;;;;;;5010527;28;20420;-81
2021/12/14 10:06:03;;;;;;;13.43;6.00;;;7.10;97.30;;;;;;5026833;28;20415;-80
2021/12/14 10:08:35;;;;;;;15.57;7.13;;;7.10;97.30;;;;;;5006656;28;20404;-81
2021/12/14 10:11:09;;;;;;;18.10;6.10;;;7.10;97.30;;;;;;5018832;28;20463;-79
2021/12/14 10:13:41;;;;;;;14.80;5.53;;;7.10;97.30;;;;;;5022008;28;20419;-80
2021/12/14 10:16:09;;;;;;;14.40;6.93;;;7.10;97.30;;;;;;5034665;28;20431;-82
2021/12/14 10:18:43;;;;;;;18.63;7.60;;;7.10;97.30;;;;;;5009146;28;20426;-81
2021/12/14 10:21:15;;;;;;;18.67;7.63;;;7.10;97.30;;;;;;5020832;28;20833;-80
2021/12/14 10:23:46;;;;;;;14.60;7.13;;;7.10;97.30;;;;;;5031546;28;20420;-80
2021/12/14 10:26:16;;;;;;;16.47;7.37;;;7.10;97.30;;;;;;5032723;28;20447;-80
2021/12/14 10:28:48;;;;;;;15.53;6.93;;;7.10;97.30;;;;;;5031990;28;20577;-80
2021/12/14 10:31:27;;;;;;;18.73;8.57;;;7.10;97.30;;;;;;5031420;28;20415;-81
2021/12/14 10:34:00;;;;;;;23.50;6.67;;;7.10;97.30;;;;;;5033458;28;20415;-80
2021/12/14 10:36:36;;;;;;;18.73;7.97;;;7.10;97.30;;;;;;5032229;28;20573;-81
2021/12/14 10:39:23;;;;;;;16.17;6.60;;;7.10;97.30;;;;;;5031931;28;20972;-81
2021/12/14 10:44:42;;;;;;;15.80;6.07;;;7.20;97.30;;;;;;5033676;28;20495;-81
2021/12/14 10:47:11;;;;;;;18.30;7.57;;;7.20;97.30;;;;;;5032189;28;20527;-80
2021/12/14 10:49:38;;;;;;;14.00;6.70;;;7.20;97.30;;;;;;5032477;28;20426;-80
2021/12/14 10:52:14;;;;;;;16.50;6.97;;;7.20;97.30;;;;;;5032063;28;20476;-80
2021/12/14 10:54:46;;;;;;;16.70;7.33;;;7.20;97.30;;;;;;5031215;28;20470;-80
2021/12/14 10:57:15;;;;;;;19.20;7.40;;;7.30;97.30;;;;;;5031486;28;20434;-80
2021/12/14 10:59:45;;;;;;;21.33;8.50;;;7.30;97.30;;;;;;5020635;28;20518;-80
2021/12/14 11:02:12;;;;;;;21.67;8.00;;;7.30;97.30;;;;;;5015232;28;20868;-80
2021/12/14 11:04:54;;;;;;;19.07;6.90;;;7.30;97.30;;;;;;5014578;28;20410;-80
2021/12/14 11:07:37;;;;;;;18.17;7.60;;;7.30;97.30;;;;;;5015274;28;20807;-80
2021/12/14 11:10:27;;;;;;;15.77;7.20;;;7.30;97.30;;;;;;5014854;28;20526;-82
2021/12/14 11:13:00;;;;;;;16.73;7.13;;;7.30;97.30;;;;;;5014954;28;20414;-82
2021/12/14 11:15:35;;;;;;;18.63;7.73;;;7.30;97.30;;;;;;5014895;28;20403;-80
2021/12/14 11:18:11;;;;;;;17.47;7.53;;;7.40;97.30;;;;;;4996500;28;20508;-80
2021/12/14 11:21:02;;;;;;;24.70;8.07;;;7.40;97.30;;;;;;4994124;28;20420;-81
2021/12/14 11:23:29;;;;;;;18.77;7.77;;;7.40;97.30;;;;;;4994377;28;20483;-82
2021/12/14 11:26:06;;;;;;;23.90;8.10;;;7.40;97.30;;;;;;4994067;28;20427;-80
2021/12/14 11:28:44;;;;;;;16.07;7.77;;;7.40;97.30;;;;;;4994667;28;20446;-81
2021/12/14 11:31:29;;;;;;;18.73;8.20;;;7.40;97.30;;;;;;5009918;28;20799;-80
2021/12/14 11:34:00;;;;;;;19.73;8.30;;;7.40;97.30;;;;;;4994025;28;20524;-80
2021/12/14 11:36:32;;;;;;;20.97;8.33;;;7.40;97.30;;;;;;4993966;28;21015;-81
2021/12/14 11:39:27;;;;;;;21.27;7.50;;;7.40;97.30;;;;;;4993842;28;20423;-80
2021/12/14 11:42:04;;;;;;;20.23;7.73;;;7.40;97.30;;;;;;4993466;28;21004;-80
2021/12/14 11:44:37;;;;;;;19.20;7.93;;;7.40;97.30;;;;;;4993772;28;20419;-80
2021/12/14 11:50:17;;;;;;;17.53;6.70;;;7.40;97.30;;;;;;5011523;28;20519;-80
2021/12/14 11:53:09;;;;;;;19.17;7.27;;;7.40;97.30;;;;;;5004568;28;20468;-80
2021/12/14 11:55:48;;;;;;;21.30;7.17;;;7.40;97.30;;;;;;5012046;28;20396;-80
2021/12/14 11:58:33;;;;;;;16.70;8.73;;;7.40;97.30;;;;;;4997506;28;20934;-80
2021/12/14 12:01:21;;;;;;;25.73;7.97;;;7.40;97.30;;;;;;5005787;28;20837;-80
2021/12/14 12:04:04;;;;;;;18.07;8.27;;;7.40;97.30;;;;;;4994253;28;21007;-80
2021/12/14 12:09:31;;;;;;;18.87;8.10;;;7.40;97.30;;;;;;5011467;28;20837;-81
2021/12/14 12:12:03;;;;;;;19.30;7.73;;;7.40;97.30;;;;;;4993484;28;20831;-81
2021/12/14 12:14:47;;;;;;;16.80;7.93;;;7.40;97.30;;;;;;4993480;28;20470;-80
2021/12/14 12:17:31;;;;;;;25.13;8.63;;;7.40;97.30;;;;;;5009082;28;20432;-80
2021/12/14 12:20:12;;;;;;;16.93;7.77;;;7.40;97.30;;;;;;5011579;28;20400;-81
2021/12/14 12:22:58;;;;;;;18.60;8.90;;;7.40;97.30;;;;;;4992768;28;20538;-81
2021/12/14 12:25:31;;;;;;;22.23;9.43;;;7.40;97.30;;;;;;4992640;28;20429;-81
2021/12/14 12:28:04;;;;;;;19.60;8.80;;;7.40;97.30;;;;;;5009607;28;20498;-80
2021/12/14 12:30:54;;;;;;;23.80;8.23;;;7.40;97.30;;;;;;4993762;28;20450;-80
2021/12/14 12:33:30;;;;;;;18.70;8.27;;;7.40;97.30;;;;;;4992853;28;20834;-80
2021/12/14 12:36:14;;;;;;;21.97;9.73;;;7.40;97.30;;;;;;4993008;28;20416;-81
2021/12/14 12:38:53;;;;;;;20.33;8.30;;;7.40;97.30;;;;;;4993417;28;20424;-80
2021/12/14 12:41:26;;;;;;;17.97;7.87;;;7.50;97.30;;;;;;4994413;28;21006;-82
2021/12/14 12:44:27;;;;;;;22.77;7.87;;;7.40;97.30;;;;;;4997786;28;20423;-80
2021/12/14 12:46:59;;;;;;;21.13;7.40;;;7.40;97.30;;;;;;4984610;28;20436;-81
2021/12/14 12:49:26;;;;;;;15.77;7.23;;;7.40;97.30;;;;;;5013778;28;20926;-80
2021/12/14 12:52:03;;;;;;;24.60;8.73;;;7.40;97.30;;;;;;4997003;28;20515;-80
2021/12/14 12:54:35;;;;;;;19.40;8.10;;;7.40;97.30;;;;;;5027997;28;20486;-81
2021/12/14 12:57:47;;;;;;;22.30;8.30;;;7.40;97.30;;;;;;5013402;28;20452;-80
2021/12/14 13:00:21;;;;;;;19.50;7.70;;;7.40;97.30;;;;;;4972797;28;20808;-80
2021/12/14 13:03:12;;;;;;;18.83;8.17;;;7.40;97.30;;;;;;4993678;28;20498;-82
2021/12/14 13:05:43;;;;;;;22.60;9.37;;;7.50;97.30;;;;;;4993731;28;20421;-81
2021/12/14 13:08:12;;;;;;;21.30;10.30;;;7.50;97.30;;;;;;4993931;28;20437;-80
2021/12/14 13:10:56;;;;;;;23.97;9.93;;;7.50;97.30;;;;;;4993719;28;20445;-81
2021/12/14 13:13:33;;;;;;;27.70;9.33;;;7.50;97.30;;;;;;4993231;28;20504;-80
2021/12/14 13:16:01;;;;;;;20.13;7.90;;;7.50;97.30;;;;;;4993600;28;20427;-80
2021/12/14 13:18:40;;;;;;;24.10;9.10;;;7.50;97.30;;;;;;4993644;28;20946;-82
2021/12/14 13:21:24;;;;;;;23.00;9.37;;;7.50;97.30;;;;;;4993953;28;20452;-80
2021/12/14 13:23:58;;;;;;;27.33;9.70;;;7.50;97.30;;;;;;4993313;28;20511;-81
2021/12/14 13:26:32;;;;;;;23.83;8.83;;;7.50;97.30;;;;;;4993391;28;20804;-80
2021/12/14 13:29:25;;;;;;;20.40;9.03;;;7.50;97.30;;;;;;4993668;28;20780;-81
2021/12/14 13:32:00;;;;;;;20.33;8.80;;;7.50;97.30;;;;;;4993547;28;20816;-80
2021/12/14 13:34:34;;;;;;;24.33;9.90;;;7.50;97.30;;;;;;4994723;28;20420;-80
2021/12/14 13:37:02;;;;;;;26.97;11.83;;;7.50;97.30;;;;;;4993539;28;20449;-81
2021/12/14 13:39:29;;;;;;;25.53;9.40;;;7.50;97.30;;;;;;4994106;28;20429;-81
2021/12/14 13:42:05;;;;;;;23.27;9.47;;;7.50;97.30;;;;;;4994816;28;20970;-80
2021/12/14 13:44:34;;;;;;;30.23;10.60;;;7.50;97.30;;;;;;4993221;28;20790;-80
2021/12/14 13:47:03;;;;;;;20.10;8.73;;;7.50;97.30;;;;;;4992915;28;20444;-80
2021/12/14 13:49:29;;;;;;;23.43;10.03;;;7.50;97.30;;;;;;4995733;28;20456;-80
2021/12/14 13:51:55;;;;;;;20.33;9.67;;;7.50;97.30;;;;;;5012740;28;20455;-81
2021/12/14 13:54:22;;;;;;;26.50;11.20;;;7.50;97.30;;;;;;5011215;28;20639;-80
2021/12/14 13:56:50;;;;;;;31.30;13.37;;;7.60;97.30;;;;;;5012628;28;20480;-82